Time;durP1;ratioP1;P1;durP2;ratioP2;P2;SDS_P1;SDS_P2;PMS_P1;PMS_P2;Temp;Humidity;BMP_temperature;BMP_pressure;BME280_temperature;BME280_humidity;BME280_pressure;Samples;Min_cycle;Max_cycle;Signal;HPM_P1;HPM_P2
2021/09/30 00:02:03;;;;;;;7.97;0.35;;;;;;;8.96;57.43;101591.44;4991598;28;20069;-69
2021/09/30 00:04:29;;;;;;;1.42;0.57;;;;;;;9.01;56.82;101593.97;5005955;28;20034;-69
2021/09/30 00:06:54;;;;;;;6.80;0.45;;;;;;;9.01;57.28;101595.69;4991245;28;20042;-68
2021/09/30 00:09:20;;;;;;;7.15;0.50;;;;;;;9.19;57.10;101590.06;5007449;28;20042;-69
2021/09/30 00:11:48;;;;;;;14.07;0.60;;;;;;;9.38;56.75;101583.53;4983605;28;20044;-69
2021/09/30 00:14:23;;;;;;;6.13;0.45;;;;;;;9.21;57.19;101576.97;4993388;28;20039;-69
2021/09/30 00:17:18;;;;;;;4.88;0.77;;;;;;;9.28;56.82;101586.41;5006685;28;20033;-69
2021/09/30 00:49:10;;;;;;;7.72;0.40;;;;;;;8.78;56.21;101620.50;4996032;28;20042;-69
2021/09/30 01:57:41;;;;;;;13.43;0.55;;;;;;;8.56;54.57;101701.69;5003332;28;20042;-69
2021/09/30 01:59:09;;;;;;;14.35;0.40;;;;;;;7.85;58.29;101701.16;5013744;28;20030;-70
2021/09/30 02:21:40;;;;;;;6.35;0.43;;;;;;;8.18;57.68;101725.78;5014144;28;20038;-69
2021/09/30 02:59:43;;;;;;;10.20;0.60;;;;;;;8.64;54.75;101752.81;5010193;28;20041;-70
2021/09/30 03:02:09;;;;;;;6.85;0.30;;;;;;;8.34;55.58;101765.47;5007061;28;20042;-70
2021/09/30 03:04:38;;;;;;;8.55;0.60;;;;;;;8.54;54.83;101763.38;4985733;28;20029;-69
2021/09/30 03:07:06;;;;;;;1.90;0.32;;;;;;;8.84;53.67;101766.34;4993311;28;20343;-68
2021/09/30 03:09:41;;;;;;;4.43;0.50;;;;;;;8.38;55.29;101769.72;4996715;28;20069;-69
2021/09/30 03:12:16;;;;;;;9.20;0.40;;;;;;;7.83;56.94;101760.19;5007967;28;20033;-68
2021/09/30 03:14:46;;;;;;;1.73;0.13;;;;;;;8.58;55.58;101772.00;4997878;28;20237;-69
2021/09/30 03:17:19;;;;;;;5.90;0.30;;;;;;;8.79;54.79;101778.63;4994764;28;20038;-69
2021/09/30 03:19:58;;;;;;;7.68;0.20;;;;;;;8.68;55.54;101783.13;4996356;28;20076;-69
2021/09/30 03:22:24;;;;;;;4.22;0.30;;;;;;;8.51;56.00;101807.72;4996006;28;20040;-69
2021/09/30 03:24:50;;;;;;;9.20;0.40;;;;;;;8.35;56.72;101799.28;4998214;28;20587;-68
2021/09/30 03:27:18;;;;;;;9.52;0.95;;;;;;;8.01;57.46;101811.13;5002882;28;20037;-68
2021/09/30 03:29:46;;;;;;;14.95;0.40;;;;;;;8.04;57.70;101798.91;4997327;28;20841;-68
2021/09/30 03:32:12;;;;;;;7.82;0.35;;;;;;;7.75;58.67;101807.13;4997935;28;20037;-68
2021/09/30 03:34:56;;;;;;;7.78;0.45;;;;;;;8.23;57.15;101807.31;5009248;28;20081;-69
2021/09/30 03:37:24;;;;;;;7.60;0.52;;;;;;;7.83;58.16;101809.63;4994462;28;20034;-69
2021/09/30 03:39:49;;;;;;;6.40;0.38;;;;;;;7.62;58.89;101802.94;5003903;28;20022;-69
2021/09/30 03:42:15;;;;;;;1.55;0.20;;;;;;;7.63;58.77;101796.88;4999211;28;20029;-68
2021/09/30 03:44:44;;;;;;;3.60;0.20;;;;;;;7.35;58.90;101811.91;5011229;28;20589;-71
2021/09/30 03:47:14;;;;;;;7.43;1.15;;;;;;;7.80;57.25;101804.44;4999530;28;20160;-69
2021/09/30 03:49:52;;;;;;;4.25;0.20;;;;;;;7.77;57.38;101812.31;5008037;28;20042;-70
2021/09/30 04:00:15;;;;;;;4.43;0.13;;;;;;;7.66;56.95;101805.50;4992579;28;20365;-69
2021/09/30 04:02:41;;;;;;;4.78;0.10;;;;;;;7.56;57.44;101798.69;4999807;28;20065;-69
2021/09/30 04:05:09;;;;;;;6.18;0.20;;;;;;;7.96;56.06;101805.97;4997364;28;20432;-69
2021/09/30 04:07:34;;;;;;;5.90;0.88;;;;;;;7.59;57.03;101808.22;4997988;28;20677;-68
2021/09/30 04:10:00;;;;;;;2.15;0.20;;;;;;;6.81;59.38;101821.13;5016271;28;20041;-69
2021/09/30 04:12:25;;;;;;;5.68;0.32;;;;;;;7.08;59.05;101816.53;4996890;28;20041;-70
2021/09/30 04:14:52;;;;;;;4.85;0.10;;;;;;;7.39;57.73;101827.47;5011866;28;20117;-70
2021/09/30 04:17:18;;;;;;;9.35;0.85;;;;;;;7.22;58.49;101839.78;5004426;28;20141;-70
2021/09/30 04:19:43;;;;;;;3.13;0.30;;;;;;;7.30;58.00;101832.78;4996302;28;20030;-71
2021/09/30 04:22:09;;;;;;;1.90;0.20;;;;;;;6.99;58.90;101832.25;5002095;28;20467;-71
2021/09/30 04:24:35;;;;;;;4.78;0.82;;;;;;;7.38;58.10;101830.09;5001887;28;20073;-69
2021/09/30 04:27:02;;;;;;;7.53;0.77;;;;;;;7.72;56.41;101831.44;4998927;28;20121;-71
2021/09/30 04:29:28;;;;;;;3.28;0.13;;;;;;;7.25;58.05;101829.38;5002067;28;20129;-71
2021/09/30 04:31:54;;;;;;;2.13;0.15;;;;;;;7.94;55.82;101831.19;4988620;28;20400;-68
2021/09/30 04:34:20;;;;;;;6.72;0.85;;;;;;;7.63;56.49;101839.38;5002428;28;20041;-69
2021/09/30 04:36:46;;;;;;;6.68;0.77;;;;;;;8.20;54.81;101853.38;4999083;28;20100;-71
2021/09/30 04:39:14;;;;;;;4.55;0.30;;;;;;;8.09;55.25;101851.78;5000611;28;20034;-69
2021/09/30 04:41:43;;;;;;;8.32;0.65;;;;;;;7.88;55.72;101865.94;5006622;28;20638;-69
2021/09/30 04:44:09;;;;;;;2.60;0.20;;;;;;;8.39;54.25;101873.06;4985084;28;20475;-70
2021/09/30 04:46:35;;;;;;;1.98;0.47;;;;;;;8.52;53.66;101879.81;4984955;28;20037;-70
2021/09/30 04:49:23;;;;;;;3.65;0.35;;;;;;;8.40;54.00;101884.34;4998321;28;20116;-70
2021/09/30 04:51:48;;;;;;;0.57;0.10;;;;;;;8.16;54.52;101876.00;5002484;28;20121;-70
2021/09/30 04:54:14;;;;;;;3.35;0.38;;;;;;;8.33;53.69;101860.13;4996930;28;20041;-69
2021/09/30 04:56:39;;;;;;;2.97;0.17;;;;;;;7.87;55.19;101873.75;5005756;28;20503;-70
2021/09/30 04:59:13;;;;;;;1.73;0.35;;;;;;;7.72;55.56;101877.44;5003531;28;20589;-71
2021/09/30 05:01:40;;;;;;;4.13;0.20;;;;;;;7.16;57.69;101905.75;4999187;28;20034;-70
2021/09/30 05:04:11;;;;;;;6.45;0.52;;;;;;;7.01;58.42;101916.25;4999851;28;20025;-70
2021/09/30 05:06:37;;;;;;;9.98;0.30;;;;;;;7.01;59.20;101905.88;5000160;28;20462;-70
2021/09/30 05:09:03;;;;;;;3.88;0.22;;;;;;;6.86;60.08;101902.53;5001093;28;20048;-71
2021/09/30 05:11:38;;;;;;;7.75;0.50;;;;;;;7.44;59.18;101908.91;4999218;28;20045;-70
2021/09/30 05:14:04;;;;;;;7.78;0.28;;;;;;;7.48;59.08;101899.34;5003331;28;20036;-71
2021/09/30 05:16:29;;;;;;;1.83;0.20;;;;;;;7.09;59.67;101901.47;5018101;28;20033;-70
2021/09/30 05:19:18;;;;;;;4.75;0.40;;;;;;;7.28;59.79;101903.00;4996539;28;20042;-71
2021/09/30 05:21:44;;;;;;;4.38;0.40;;;;;;;7.58;58.52;101895.81;5003347;28;20034;-70
2021/09/30 05:24:11;;;;;;;2.63;0.25;;;;;;;7.61;58.36;101900.97;4996788;28;20374;-71
2021/09/30 05:26:36;;;;;;;4.32;0.20;;;;;;;7.32;59.26;101902.09;4999434;28;20034;-71
2021/09/30 05:29:03;;;;;;;2.03;0.20;;;;;;;7.38;58.89;101902.91;5018513;28;20500;-70
2021/09/30 05:31:30;;;;;;;5.20;0.30;;;;;;;7.51;58.34;101904.50;5003705;28;20040;-69
2021/09/30 05:34:22;;;;;;;3.42;0.20;;;;;;;7.08;59.93;101910.13;5001037;28;20038;-69
2021/09/30 05:36:49;;;;;;;3.92;0.43;;;;;;;7.37;58.65;101907.25;4981420;28;20049;-71
2021/09/30 05:39:14;;;;;;;8.00;0.77;;;;;;;7.42;58.37;101913.28;5017334;28;20041;-69
2021/09/30 05:41:40;;;;;;;4.05;0.25;;;;;;;7.41;58.52;101908.94;5015368;28;20033;-71
2021/09/30 05:44:09;;;;;;;3.13;0.20;;;;;;;7.28;58.23;101897.81;4999032;28;20030;-72
2021/09/30 05:46:41;;;;;;;5.30;0.50;;;;;;;7.43;58.06;101914.16;4998769;28;20041;-70
2021/09/30 05:49:07;;;;;;;2.63;0.20;;;;;;;7.43;58.20;101930.59;5003512;28;20045;-70
2021/09/30 05:51:33;;;;;;;5.03;0.75;;;;;;;7.44;58.34;101923.66;4998207;28;20034;-70
2021/09/30 05:54:34;;;;;;;6.85;0.10;;;;;;;7.21;58.74;101929.94;4981488;28;20050;-70
2021/09/30 05:57:15;;;;;;;10.05;0.55;;;;;;;7.60;58.04;101930.47;4986704;28;20049;-69
2021/09/30 05:59:41;;;;;;;1.92;0.17;;;;;;;7.67;57.48;101926.06;4999652;28;20034;-70
2021/09/30 06:12:36;;;;;;;2.80;0.15;;;;;;;7.41;58.35;101944.50;5001170;28;20191;-70
2021/09/30 06:15:03;;;;;;;6.60;0.10;;;;;;;7.55;58.20;101947.00;4982492;28;20403;-70
2021/09/30 06:17:30;;;;;;;4.03;0.40;;;;;;;7.91;57.33;101962.25;4993504;28;20038;-70
2021/09/30 06:19:56;;;;;;;0.55;0.10;;;;;;;7.94;57.18;101971.75;4997819;28;20033;-70
2021/09/30 06:22:21;;;;;;;2.75;0.20;;;;;;;8.11;56.64;101976.75;5001999;28;20089;-70
2021/09/30 06:24:47;;;;;;;3.05;0.28;;;;;;;8.17;56.43;101975.81;4999944;28;20033;-70
2021/09/30 06:27:13;;;;;;;2.28;0.20;;;;;;;7.85;57.75;101977.06;4995010;28;20455;-70
2021/09/30 06:29:40;;;;;;;4.90;0.20;;;;;;;7.41;58.99;101965.31;5003400;28;20153;-70
2021/09/30 06:32:06;;;;;;;1.40;0.32;;;;;;;7.67;58.35;101962.50;4998925;28;20041;-69
2021/09/30 06:34:57;;;;;;;5.25;0.28;;;;;;;7.46;59.12;101963.53;4994840;28;20122;-70
2021/09/30 06:37:33;;;;;;;4.10;0.30;;;;;;;7.14;59.80;101954.28;5002146;28;20034;-71
2021/09/30 06:39:59;;;;;;;2.08;0.30;;;;;;;6.79;61.04;101965.78;4997626;28;20030;-71
2021/09/30 06:42:24;;;;;;;6.43;0.22;;;;;;;7.60;58.70;101966.91;5004547;28;20065;-71
2021/09/30 06:44:52;;;;;;;4.20;0.40;;;;;;;7.77;57.63;101968.47;4999412;28;20044;-70
2021/09/30 06:47:37;;;;;;;2.55;0.15;;;;;;;7.78;58.33;101973.66;4996646;28;20517;-71
2021/09/30 06:50:12;;;;;;;6.93;0.45;;;;;;;7.71;59.22;101975.47;4984658;28;20038;-71
2021/09/30 06:52:57;;;;;;;7.82;0.68;;;;;;;9.32;55.83;101980.25;4995801;28;20080;-68
2021/09/30 06:56:05;;;;;;;1.85;0.10;;;;;;;10.13;50.96;101975.25;4977712;28;20130;-68
2021/09/30 06:58:49;;;;;;;4.70;0.28;;;;;;;9.67;52.91;101991.78;4977982;28;20049;-70
2021/09/30 07:01:35;;;;;;;5.72;0.20;;;;;;;9.59;53.16;101983.25;4988301;28;20217;-70
2021/09/30 07:04:19;;;;;;;4.70;0.73;;;;;;;12.10;47.22;101987.94;5008412;28;20049;-70
2021/09/30 07:06:54;;;;;;;3.28;0.47;;;;;;;13.33;43.72;101988.47;5007144;28;20153;-71
2021/09/30 07:09:20;;;;;;;0.85;0.10;;;;;;;14.44;40.97;101986.31;5011267;28;20116;-71
2021/09/30 07:11:45;;;;;;;3.55;0.25;;;;;;;14.05;42.48;101989.47;4999613;28;20211;-71
2021/09/30 07:14:11;;;;;;;1.42;0.10;;;;;;;13.55;41.89;101989.50;4995817;28;20041;-69
2021/09/30 07:16:36;;;;;;;0.88;0.10;;;;;;;14.17;43.97;101994.31;4997664;28;20068;-70
2021/09/30 07:19:02;;;;;;;2.88;0.40;;;;;;;14.89;39.81;101990.66;5008109;28;20054;-70
2021/09/30 07:21:30;;;;;;;2.67;0.60;;;;;;;16.16;36.69;101987.00;4998050;28;20037;-70
2021/09/30 07:23:56;;;;;;;5.57;0.32;;;;;;;17.17;36.60;101991.84;4996019;28;20590;-70
2021/09/30 07:26:21;;;;;;;1.48;0.15;;;;;;;15.93;38.77;101999.41;5000147;28;20180;-71
2021/09/30 07:28:48;;;;;;;3.22;0.93;;;;;;;15.37;38.21;101997.47;5010439;28;20117;-71
2021/09/30 07:31:14;;;;;;;5.10;0.40;;;;;;;14.87;39.12;102005.66;4994863;28;20076;-71
2021/09/30 07:33:39;;;;;;;2.80;0.20;;;;;;;15.95;37.49;102005.47;4998710;28;20034;-70
2021/09/30 07:36:05;;;;;;;3.22;0.70;;;;;;;17.85;34.39;102007.75;4992767;28;20126;-70
2021/09/30 07:38:30;;;;;;;5.78;0.15;;;;;;;18.29;33.82;102015.09;4997950;28;20113;-70
2021/09/30 07:40:56;;;;;;;5.45;0.32;;;;;;;18.01;34.65;102021.84;4993125;28;20418;-70
2021/09/30 07:43:22;;;;;;;3.05;0.70;;;;;;;18.85;33.09;102021.69;4997142;28;20612;-70
2021/09/30 07:45:48;;;;;;;3.05;0.43;;;;;;;16.18;35.45;102028.19;4996549;28;20069;-70
2021/09/30 07:48:13;;;;;;;3.38;0.20;;;;;;;14.81;39.86;102035.69;4983414;28;20037;-71
2021/09/30 07:50:39;;;;;;;3.40;0.82;;;;;;;13.05;42.88;102033.16;5000506;28;20293;-71
2021/09/30 07:53:05;;;;;;;8.02;0.25;;;;;;;12.34;45.47;102038.81;4998498;28;20113;-70
2021/09/30 07:55:30;;;;;;;3.08;0.30;;;;;;;11.87;46.72;102047.94;5000043;28;20457;-70
2021/09/30 07:57:56;;;;;;;3.08;0.10;;;;;;;13.16;45.34;102053.81;5009738;28;20065;-71
2021/09/30 08:00:22;;;;;;;4.68;0.52;;;;;;;15.45;39.97;102045.41;5005802;28;20404;-69
2021/09/30 08:02:47;;;;;;;5.18;0.30;;;;;;;17.54;36.95;102043.72;5006925;28;20042;-71
2021/09/30 08:05:13;;;;;;;3.30;0.20;;;;;;;18.72;34.21;102055.09;4976671;28;20030;-69
2021/09/30 08:07:38;;;;;;;4.22;0.13;;;;;;;16.98;36.54;102052.66;4995044;28;20089;-70
2021/09/30 08:10:05;;;;;;;4.40;0.20;;;;;;;15.49;38.11;102047.00;4990179;28;20038;-70
2021/09/30 08:12:31;;;;;;;2.30;0.30;;;;;;;13.34;42.51;102052.38;5008584;28;20030;-71
2021/09/30 08:14:57;;;;;;;2.03;0.20;;;;;;;12.89;44.95;102039.78;5006325;28;20088;-71
2021/09/30 08:17:22;;;;;;;7.82;0.80;;;;;;;12.46;45.24;102046.31;4996504;28;20038;-70
2021/09/30 08:19:48;;;;;;;10.88;0.30;;;;;;;14.12;42.02;102040.91;5010634;28;20041;-70
2021/09/30 08:22:14;;;;;;;5.35;0.60;;;;;;;14.23;41.57;102048.41;5007418;28;20125;-71
2021/09/30 08:24:39;;;;;;;2.90;0.47;;;;;;;14.01;42.45;102037.81;4992387;28;20022;-71
2021/09/30 08:27:05;;;;;;;5.18;0.20;;;;;;;13.86;42.16;102045.34;5011242;28;20046;-71
2021/09/30 08:29:30;;;;;;;3.55;0.35;;;;;;;14.53;40.50;102046.47;4991394;28;20034;-72
2021/09/30 08:31:56;;;;;;;3.38;0.82;;;;;;;15.78;39.07;102044.91;4994065;28;20122;-71
2021/09/30 08:34:21;;;;;;;5.85;0.35;;;;;;;15.26;39.93;102047.97;4995763;28;20061;-70
2021/09/30 08:36:47;;;;;;;4.32;0.43;;;;;;;16.99;37.02;102057.84;4992068;28;20056;-70
2021/09/30 08:39:13;;;;;;;8.82;0.40;;;;;;;16.42;38.43;102054.38;4995500;28;20045;-69
2021/09/30 08:41:39;;;;;;;7.43;0.55;;;;;;;16.11;37.33;102041.75;4993204;28;20121;-72
2021/09/30 08:44:06;;;;;;;7.78;0.20;;;;;;;14.61;40.28;102054.88;4990093;28;20580;-70
2021/09/30 08:46:34;;;;;;;6.18;0.65;;;;;;;14.96;40.94;102052.66;4995300;28;20088;-71
2021/09/30 08:49:00;;;;;;;2.42;0.30;;;;;;;14.99;40.37;102060.44;4992395;28;20034;-71
2021/09/30 08:51:26;;;;;;;6.03;0.32;;;;;;;14.11;41.79;102055.00;4995148;28;20034;-70
2021/09/30 08:53:52;;;;;;;3.13;0.60;;;;;;;13.91;42.73;102072.31;4998341;28;20223;-71
2021/09/30 08:56:18;;;;;;;6.53;0.43;;;;;;;13.84;42.87;102069.97;4997076;28;20080;-70
2021/09/30 08:58:43;;;;;;;5.05;0.35;;;;;;;15.01;39.89;102066.50;4984628;28;20050;-70
2021/09/30 09:01:11;;;;;;;5.20;0.52;;;;;;;14.11;41.02;102073.38;4994826;28;20100;-71
2021/09/30 09:03:38;;;;;;;8.18;0.20;;;;;;;14.05;39.28;102070.97;4998136;28;20073;-69
2021/09/30 09:06:06;;;;;;;5.25;0.32;;;;;;;14.17;39.74;102070.53;4995409;28;20026;-70
2021/09/30 09:08:32;;;;;;;2.17;0.45;;;;;;;14.41;39.63;102074.09;4998881;28;20049;-71
2021/09/30 09:10:59;;;;;;;3.38;0.50;;;;;;;15.49;38.51;102076.00;4995802;28;20044;-70
2021/09/30 09:13:25;;;;;;;4.40;0.65;;;;;;;14.85;38.50;102081.19;5000232;28;20026;-70
2021/09/30 09:15:59;;;;;;;3.90;0.17;;;;;;;15.45;37.74;102084.94;4988558;28;20115;-70
2021/09/30 09:18:28;;;;;;;4.10;0.10;;;;;;;15.30;37.98;102094.31;5011837;28;20038;-70
2021/09/30 09:21:06;;;;;;;5.50;0.30;;;;;;;15.54;36.54;102084.56;5013199;28;20046;-69
2021/09/30 09:23:33;;;;;;;3.75;0.40;;;;;;;13.50;39.60;102089.47;4999395;28;20029;-69
2021/09/30 09:26:07;;;;;;;6.95;0.20;;;;;;;13.75;40.12;102092.16;4999291;28;20045;-69
2021/09/30 09:28:33;;;;;;;7.28;0.43;;;;;;;13.88;40.67;102093.47;5000994;28;20470;-69
2021/09/30 09:30:59;;;;;;;6.75;0.45;;;;;;;13.75;40.41;102097.41;4997227;28;20040;-69
2021/09/30 09:33:29;;;;;;;8.05;0.77;;;;;;;13.82;41.99;102096.28;5006472;28;20026;-69
2021/09/30 09:36:19;;;;;;;4.38;0.35;;;;;;;15.54;39.97;102088.97;5001580;28;20051;-69
2021/09/30 09:38:51;;;;;;;8.75;0.50;;;;;;;14.72;39.84;102088.69;4995470;28;20045;-69
2021/09/30 09:41:35;;;;;;;4.53;1.05;;;;;;;16.13;37.45;102095.25;5008668;28;20038;-69
2021/09/30 09:44:04;;;;;;;5.00;0.20;;;;;;;15.04;38.79;102099.78;4994151;28;20029;-70
2021/09/30 09:46:38;;;;;;;5.00;0.60;;;;;;;15.17;37.87;102091.31;5014959;28;20038;-69
2021/09/30 09:49:14;;;;;;;5.40;1.45;;;;;;;14.63;38.29;102095.16;4987241;28;20092;-69
2021/09/30 09:51:45;;;;;;;6.45;0.47;;;;;;;15.26;37.90;102095.38;4997216;28;20054;-69
2021/09/30 09:54:13;;;;;;;1.88;0.30;;;;;;;14.54;36.88;102092.88;4998382;28;20109;-69
2021/09/30 09:56:40;;;;;;;4.53;0.57;;;;;;;13.37;40.50;102104.78;5000596;28;20344;-70
2021/09/30 09:59:05;;;;;;;7.07;0.90;;;;;;;13.54;39.64;102106.88;4995405;28;20042;-71
2021/09/30 10:01:42;;;;;;;9.32;0.55;;;;;;;13.77;40.90;102106.13;5000367;28;20591;-70
2021/09/30 10:04:08;;;;;;;9.40;0.45;;;;;;;14.28;39.08;102101.72;4994728;28;20040;-69
2021/09/30 10:06:34;;;;;;;7.60;0.40;;;;;;;14.44;37.59;102109.94;4994977;28;20034;-70
2021/09/30 10:09:02;;;;;;;8.30;0.52;;;;;;;15.37;36.34;102101.06;4993145;28;20423;-70
2021/09/30 10:11:28;;;;;;;3.33;0.20;;;;;;;14.55;36.50;102092.81;4997251;28;20042;-70
2021/09/30 10:14:00;;;;;;;5.60;0.40;;;;;;;15.17;37.56;102107.13;4996315;28;20044;-69
2021/09/30 10:16:27;;;;;;;6.90;0.30;;;;;;;16.06;35.65;102107.00;5012209;28;20035;-70
2021/09/30 10:18:58;;;;;;;4.45;0.90;;;;;;;15.11;35.35;102112.63;4994935;28;20042;-69
2021/09/30 10:21:26;;;;;;;5.07;0.40;;;;;;;15.41;35.08;102112.31;5012951;28;20030;-70
2021/09/30 10:24:03;;;;;;;4.55;0.65;;;;;;;16.08;35.07;102107.78;5000571;28;20475;-69
2021/09/30 10:26:40;;;;;;;5.82;1.02;;;;;;;16.33;35.19;102111.06;5011718;28;20042;-69
2021/09/30 10:29:06;;;;;;;8.85;0.43;;;;;;;16.37;35.09;102102.06;4995732;28;20530;-70
2021/09/30 10:31:37;;;;;;;4.28;0.13;;;;;;;16.45;35.75;102108.78;5001754;28;20030;-70
2021/09/30 10:34:07;;;;;;;9.68;0.40;;;;;;;16.58;34.00;102105.53;4996268;28;20097;-70
2021/09/30 10:36:37;;;;;;;4.97;0.45;;;;;;;15.33;35.45;102114.44;4993588;28;20065;-70
2021/09/30 10:39:14;;;;;;;7.88;0.25;;;;;;;16.21;35.87;102122.16;4994453;28;20105;-69
2021/09/30 10:41:40;;;;;;;6.82;0.30;;;;;;;15.51;36.59;102108.41;5000889;28;20034;-69
2021/09/30 10:44:17;;;;;;;2.58;0.52;;;;;;;14.59;37.38;102112.00;5000888;28;20084;-69
2021/09/30 10:46:45;;;;;;;7.25;0.50;;;;;;;14.13;37.71;102108.38;5004118;28;20092;-70
2021/09/30 10:49:36;;;;;;;6.25;0.40;;;;;;;16.19;35.46;102111.66;4999031;28;20053;-71
2021/09/30 10:52:31;;;;;;;5.63;0.95;;;;;;;16.05;33.42;102110.56;5012754;28;20140;-70
2021/09/30 10:55:00;;;;;;;4.43;0.60;;;;;;;14.04;37.27;102111.34;4992933;28;20035;-70
2021/09/30 10:57:37;;;;;;;4.95;0.45;;;;;;;14.77;35.84;102121.81;4993816;28;20034;-70
2021/09/30 11:00:04;;;;;;;3.47;0.57;;;;;;;16.13;34.31;102126.91;4993956;28;20048;-70
2021/09/30 11:02:30;;;;;;;5.20;0.30;;;;;;;14.93;34.84;102118.59;4985606;28;20062;-70
2021/09/30 11:05:10;;;;;;;2.63;0.50;;;;;;;16.36;33.39;102110.91;4998100;28;20116;-69
2021/09/30 11:07:40;;;;;;;2.00;0.22;;;;;;;14.81;34.77;102103.28;4995830;28;20596;-70
2021/09/30 11:10:15;;;;;;;7.53;0.85;;;;;;;14.96;36.52;102116.69;4991832;28;20038;-69
2021/09/30 11:13:17;;;;;;;5.25;0.20;;;;;;;13.99;37.26;102123.78;5011412;28;20531;-69
2021/09/30 11:16:03;;;;;;;3.35;0.40;;;;;;;14.70;35.22;102122.97;4992292;28;20034;-70
2021/09/30 11:18:51;;;;;;;6.45;0.30;;;;;;;14.59;34.55;102114.63;4989261;28;20042;-69
2021/09/30 11:21:29;;;;;;;6.18;0.17;;;;;;;15.30;34.11;102111.91;4995630;28;20040;-70
2021/09/30 11:23:56;;;;;;;4.90;0.10;;;;;;;15.81;32.35;102121.19;5010367;28;20031;-70
2021/09/30 11:26:22;;;;;;;0.55;0.20;;;;;;;15.36;33.80;102112.50;4997091;28;20034;-69
2021/09/30 11:28:48;;;;;;;7.10;0.73;;;;;;;14.05;35.16;102134.06;4993184;28;20042;-69
2021/09/30 11:31:33;;;;;;;2.05;0.40;;;;;;;14.66;35.59;102126.63;4993660;28;20082;-70
2021/09/30 11:34:01;;;;;;;4.03;0.20;;;;;;;16.15;33.25;102122.41;5010760;28;20129;-69
2021/09/30 11:36:42;;;;;;;4.85;0.55;;;;;;;15.03;34.25;102124.38;4991522;28;20034;-70
2021/09/30 11:39:08;;;;;;;3.78;0.40;;;;;;;15.23;34.33;102136.78;4994817;28;20191;-70
2021/09/30 11:41:35;;;;;;;1.98;0.10;;;;;;;15.56;33.65;102124.88;4991909;28;20038;-69
2021/09/30 11:44:01;;;;;;;1.98;0.43;;;;;;;16.30;32.64;102129.66;4995162;28;20033;-69
2021/09/30 11:46:38;;;;;;;3.03;0.30;;;;;;;14.66;34.82;102131.91;4983924;28;20519;-69
2021/09/30 11:49:06;;;;;;;9.80;1.05;;;;;;;15.22;34.01;102119.28;4998838;28;20042;-69
2021/09/30 11:51:52;;;;;;;1.38;0.52;;;;;;;15.84;33.63;102130.75;4997627;28;20075;-70
2021/09/30 11:54:21;;;;;;;2.35;0.20;;;;;;;15.56;34.91;102127.50;4988991;28;20070;-69
2021/09/30 11:56:48;;;;;;;4.53;0.60;;;;;;;16.68;32.89;102131.50;4998499;28;20040;-70
2021/09/30 11:59:16;;;;;;;1.63;0.10;;;;;;;16.57;32.41;102119.63;4995961;28;20057;-69
2021/09/30 12:01:47;;;;;;;5.65;0.32;;;;;;;16.75;31.66;102123.22;5000705;28;20042;-70
2021/09/30 12:04:14;;;;;;;5.22;0.50;;;;;;;17.26;31.78;102130.56;4981629;28;20027;-70
2021/09/30 12:06:40;;;;;;;1.98;0.10;;;;;;;15.79;32.54;102125.69;4997367;28;20093;-69
2021/09/30 12:09:10;;;;;;;5.82;0.88;;;;;;;16.37;32.64;102117.03;4997818;28;20100;-69
2021/09/30 12:11:38;;;;;;;3.75;0.20;;;;;;;16.27;32.52;102116.63;4995924;28;20156;-69
2021/09/30 12:14:05;;;;;;;1.08;0.52;;;;;;;17.31;30.91;102116.16;4981519;28;20030;-70
2021/09/30 12:16:32;;;;;;;5.63;0.20;;;;;;;17.91;30.31;102107.91;5012073;28;20030;-70
2021/09/30 12:19:00;;;;;;;2.58;0.43;;;;;;;18.61;28.85;102110.44;4991052;28;20038;-70
2021/09/30 12:21:40;;;;;;;2.63;0.57;;;;;;;16.99;30.88;102109.81;4996350;28;20511;-69
2021/09/30 12:24:07;;;;;;;3.45;0.30;;;;;;;15.88;32.60;102116.53;4993691;28;20468;-70
2021/09/30 12:26:34;;;;;;;3.90;0.68;;;;;;;15.01;33.86;102111.25;4994652;28;20034;-69
2021/09/30 12:29:00;;;;;;;2.33;0.35;;;;;;;15.02;34.34;102112.97;5016696;28;20033;-70
2021/09/30 12:31:25;;;;;;;1.73;0.30;;;;;;;13.90;35.02;102115.28;5000152;28;20427;-70
2021/09/30 12:33:52;;;;;;;2.17;0.30;;;;;;;13.57;35.00;102121.69;5009212;28;20105;-69
2021/09/30 12:36:17;;;;;;;4.18;0.45;;;;;;;14.03;34.34;102115.75;4999912;28;20038;-70
2021/09/30 12:38:56;;;;;;;4.40;0.20;;;;;;;15.58;33.79;102112.50;4998164;28;20034;-70
2021/09/30 12:41:22;;;;;;;6.80;0.25;;;;;;;15.87;32.03;102107.78;4995532;28;20044;-70
2021/09/30 12:43:48;;;;;;;5.35;0.50;;;;;;;15.67;32.89;102097.22;4994960;28;20026;-69
2021/09/30 12:46:17;;;;;;;3.00;0.50;;;;;;;16.34;31.46;102102.22;4999128;28;20037;-71
2021/09/30 12:48:43;;;;;;;4.25;0.10;;;;;;;16.56;31.17;102106.53;4995852;28;20088;-70
2021/09/30 12:51:11;;;;;;;6.68;0.30;;;;;;;15.39;31.23;102106.25;5014592;28;20037;-70
2021/09/30 12:53:48;;;;;;;1.70;0.10;;;;;;;15.36;32.21;102098.50;4998757;28;20038;-70
2021/09/30 12:56:17;;;;;;;4.75;0.55;;;;;;;15.30;32.63;102099.59;4995057;28;20081;-70
2021/09/30 12:58:47;;;;;;;1.90;0.30;;;;;;;15.45;31.85;102108.66;4998697;28;20032;-70
2021/09/30 13:01:21;;;;;;;3.58;0.30;;;;;;;15.97;29.95;102101.19;4993469;28;20033;-69
2021/09/30 13:04:07;;;;;;;2.40;0.50;;;;;;;15.33;30.72;102103.91;5004740;28;20076;-70
2021/09/30 13:06:33;;;;;;;1.23;0.20;;;;;;;16.93;30.02;102099.53;5011454;28;20044;-69
2021/09/30 13:08:58;;;;;;;0.77;0.10;;;;;;;16.25;30.57;102097.34;4996736;28;20038;-70
2021/09/30 13:11:31;;;;;;;2.15;0.20;;;;;;;14.81;32.99;102092.75;4997948;28;20036;-69
2021/09/30 13:14:17;;;;;;;1.48;0.30;;;;;;;15.17;32.37;102095.72;5007210;28;20440;-70
2021/09/30 13:16:55;;;;;;;1.15;0.30;;;;;;;15.24;32.48;102097.22;5002309;28;20033;-70
2021/09/30 13:19:44;;;;;;;1.50;0.32;;;;;;;16.21;31.06;102085.22;4994827;28;20080;-71
2021/09/30 13:22:13;;;;;;;3.42;0.10;;;;;;;16.19;30.67;102092.34;5012322;28;20042;-69
2021/09/30 13:24:40;;;;;;;4.93;0.10;;;;;;;14.84;32.05;102088.22;5011770;28;20554;-69
2021/09/30 13:27:08;;;;;;;4.90;0.52;;;;;;;14.29;32.60;102085.88;4993440;28;20045;-69
2021/09/30 13:29:34;;;;;;;4.63;0.45;;;;;;;15.10;31.07;102084.59;5000806;28;20026;-71
2021/09/30 13:32:00;;;;;;;0.20;0.03;;;;;;;16.70;29.94;102072.41;4996824;28;20030;-70
2021/09/30 13:34:26;;;;;;;4.43;0.20;;;;;;;17.18;28.36;102071.03;5000961;28;20060;-72
2021/09/30 13:36:52;;;;;;;2.85;0.40;;;;;;;17.07;29.50;102078.63;4995117;28;20724;-70
2021/09/30 13:39:18;;;;;;;2.45;0.40;;;;;;;16.98;28.77;102076.44;5020942;28;20048;-70
2021/09/30 13:41:44;;;;;;;2.97;0.10;;;;;;;16.08;29.50;102071.72;5006682;28;20053;-71
2021/09/30 13:44:11;;;;;;;4.03;0.10;;;;;;;15.62;30.86;102080.72;4992175;28;20083;-72
2021/09/30 13:46:36;;;;;;;0.88;0.10;;;;;;;16.01;29.90;102067.66;4995895;28;20049;-69
2021/09/30 13:49:02;;;;;;;4.28;0.30;;;;;;;15.95;31.09;102068.75;4997344;28;20026;-70
2021/09/30 13:51:30;;;;;;;1.77;0.10;;;;;;;15.90;30.15;102061.97;4996586;28;20440;-70
2021/09/30 13:53:56;;;;;;;2.60;0.13;;;;;;;15.68;29.59;102062.03;4997971;28;20077;-70
2021/09/30 13:56:22;;;;;;;4.32;0.43;;;;;;;15.94;29.77;102061.75;4994583;28;20038;-69
2021/09/30 13:58:48;;;;;;;5.78;0.20;;;;;;;15.65;30.49;102055.09;4993160;28;20030;-71
2021/09/30 14:01:13;;;;;;;1.98;0.10;;;;;;;16.65;30.25;102053.31;4998923;28;20418;-69
2021/09/30 14:03:39;;;;;;;5.03;0.20;;;;;;;16.30;31.05;102058.41;4998388;28;20068;-71
2021/09/30 14:06:05;;;;;;;4.57;0.25;;;;;;;16.75;30.75;102054.59;5000085;28;20046;-70
2021/09/30 14:08:32;;;;;;;1.10;0.10;;;;;;;16.08;30.45;102074.34;5014733;28;20052;-69
2021/09/30 14:10:58;;;;;;;3.78;0.25;;;;;;;15.92;30.65;102058.31;5000121;28;20108;-70
2021/09/30 14:13:23;;;;;;;5.28;0.52;;;;;;;16.12;29.80;102059.25;5001056;28;20459;-70
2021/09/30 14:15:49;;;;;;;2.08;0.15;;;;;;;16.28;29.94;102059.41;5012581;28;20038;-69
2021/09/30 14:18:14;;;;;;;6.32;0.20;;;;;;;16.25;30.95;102055.16;4994033;28;20390;-70
2021/09/30 14:20:40;;;;;;;2.10;0.10;;;;;;;16.94;29.45;102053.72;4996104;28;20069;-71
2021/09/30 14:23:05;;;;;;;0.93;0.10;;;;;;;15.75;31.97;102035.34;4999920;28;20053;-70
2021/09/30 14:25:31;;;;;;;2.70;0.20;;;;;;;16.31;31.90;102046.97;4995261;28;20175;-70
2021/09/30 14:27:57;;;;;;;3.67;0.75;;;;;;;15.57;32.55;102050.19;4992266;28;20369;-69